createdAt,value
2019-05-10T00:00:03.150Z,997.19
2019-05-10T00:01:03.157Z,997.19
2019-05-10T00:02:03.133Z,997.17
2019-05-10T00:03:03.173Z,997.18
2019-05-10T00:04:03.114Z,997.17
2019-05-10T00:05:03.095Z,997.16
2019-05-10T00:06:03.081Z,997.21
2019-05-10T00:07:03.130Z,997.21
2019-05-10T00:08:03.064Z,997.21
2019-05-10T00:09:03.047Z,997.20
2019-05-10T00:10:03.033Z,997.33
2019-05-10T00:11:03.020Z,997.28
2019-05-10T00:12:03.084Z,997.32
2019-05-10T00:13:03.019Z,997.29
2019-05-10T00:14:03.013Z,997.30
2019-05-10T00:15:02.979Z,997.35
2019-05-10T00:16:02.971Z,997.36
2019-05-10T00:17:02.959Z,997.27
2019-05-10T00:18:02.945Z,997.30
2019-05-10T00:19:02.944Z,997.30
2019-05-10T00:20:02.927Z,997.22
2019-05-10T00:21:02.914Z,997.34
2019-05-10T00:22:02.901Z,997.34
2019-05-10T00:23:02.893Z,997.35
2019-05-10T00:24:02.899Z,997.34
2019-05-10T00:25:04.959Z,997.29
2019-05-10T00:26:02.857Z,997.40
2019-05-10T00:27:02.852Z,997.27
2019-05-10T00:28:02.836Z,997.29
2019-05-10T00:29:02.866Z,997.33
2019-05-10T00:30:02.820Z,997.29
2019-05-10T00:31:02.808Z,997.24
2019-05-10T00:32:02.793Z,997.25
2019-05-10T00:33:02.862Z,997.29
2019-05-10T00:34:02.795Z,997.29
2019-05-10T00:35:02.763Z,997.26
2019-05-10T00:36:02.753Z,997.28
2019-05-10T00:37:02.744Z,997.26
2019-05-10T00:38:02.728Z,997.30
2019-05-10T00:39:02.746Z,997.27
2019-05-10T00:40:02.711Z,997.29
2019-05-10T00:41:02.706Z,997.28
2019-05-10T00:42:02.692Z,997.29
2019-05-10T00:43:02.678Z,997.29
2019-05-10T00:44:02.676Z,997.25
2019-05-10T00:45:02.681Z,997.27
2019-05-10T00:46:02.659Z,997.24
2019-05-10T00:47:02.660Z,997.28
2019-05-10T00:48:02.622Z,997.26
2019-05-10T00:49:02.611Z,997.21
2019-05-10T00:50:02.614Z,997.29
2019-05-10T00:51:02.596Z,997.25
2019-05-10T00:52:02.579Z,997.29
2019-05-10T00:53:02.569Z,997.29
2019-05-10T00:54:02.558Z,997.25
2019-05-10T00:55:16.702Z,997.30
2019-05-10T00:56:03.535Z,997.27
2019-05-10T00:57:02.528Z,997.25
2019-05-10T00:58:02.517Z,997.24
2019-05-10T00:59:02.505Z,997.27
2019-05-10T01:00:02.508Z,997.26
2019-05-10T01:01:02.532Z,997.22
2019-05-10T01:02:02.486Z,997.25
2019-05-10T01:03:02.463Z,997.29
2019-05-10T01:04:02.480Z,997.19
2019-05-10T01:05:02.458Z,997.32
2019-05-10T01:06:02.472Z,997.31
2019-05-10T01:07:02.421Z,997.28
2019-05-10T01:08:02.407Z,997.33
2019-05-10T01:09:02.399Z,997.29
2019-05-10T01:10:02.406Z,997.30
2019-05-10T01:11:02.372Z,997.31
2019-05-10T01:12:02.361Z,997.34
2019-05-10T01:13:02.352Z,997.36
2019-05-10T01:14:02.343Z,997.36
2019-05-10T01:15:02.342Z,997.45
2019-05-10T01:16:02.315Z,997.46
2019-05-10T01:17:02.308Z,997.45
2019-05-10T01:18:02.359Z,997.41
2019-05-10T01:19:02.290Z,997.46
2019-05-10T01:20:02.297Z,997.42
2019-05-10T01:21:02.263Z,997.44
2019-05-10T01:22:02.252Z,997.47
2019-05-10T01:23:02.239Z,997.47
2019-05-10T01:24:02.261Z,997.51
2019-05-10T01:25:02.228Z,997.48
2019-05-10T01:26:02.214Z,997.50
2019-05-10T01:27:02.196Z,997.50
2019-05-10T01:28:02.191Z,997.51
2019-05-10T01:29:02.175Z,997.52
2019-05-10T01:30:02.239Z,997.53
2019-05-10T01:31:02.158Z,997.51
2019-05-10T01:32:02.179Z,997.56
2019-05-10T01:33:02.132Z,997.52
2019-05-10T01:34:02.121Z,997.58
2019-05-10T01:35:02.125Z,997.55
2019-05-10T01:36:02.108Z,997.58
2019-05-10T01:37:02.089Z,997.55
2019-05-10T01:38:02.077Z,997.53
2019-05-10T01:39:02.069Z,997.53
2019-05-10T01:40:02.090Z,997.56
2019-05-10T01:41:02.044Z,997.58
2019-05-10T01:42:02.037Z,997.59
2019-05-10T01:43:02.023Z,997.58
2019-05-10T01:44:02.022Z,997.51
2019-05-10T01:45:02.053Z,997.55
2019-05-10T01:46:01.994Z,997.56
2019-05-10T01:47:01.982Z,997.58
2019-05-10T01:48:01.970Z,997.57
2019-05-10T01:49:01.957Z,997.55
2019-05-10T01:50:01.946Z,997.56
2019-05-10T01:51:02.194Z,997.53
2019-05-10T01:52:01.931Z,997.54
2019-05-10T01:53:01.918Z,997.54
2019-05-10T01:54:01.905Z,997.58
2019-05-10T01:55:01.899Z,997.58
2019-05-10T01:56:01.919Z,997.61
2019-05-10T01:57:01.916Z,997.55
2019-05-10T01:58:01.873Z,997.60
2019-05-10T01:59:01.866Z,997.59
2019-05-10T02:00:01.851Z,997.56
2019-05-10T02:01:01.899Z,997.59
2019-05-10T02:02:01.826Z,997.60
2019-05-10T02:03:01.826Z,997.61
2019-05-10T02:04:01.806Z,997.63
2019-05-10T02:05:01.808Z,997.61
2019-05-10T02:06:01.803Z,997.65
2019-05-10T02:07:01.769Z,997.61
2019-05-10T02:08:01.772Z,997.73
2019-05-10T02:09:01.750Z,997.64
2019-05-10T02:10:01.740Z,997.68
2019-05-10T02:11:01.746Z,997.71
2019-05-10T02:12:01.730Z,997.74
2019-05-10T02:13:01.703Z,997.74
2019-05-10T02:14:01.694Z,997.69
2019-05-10T02:15:01.694Z,997.72
2019-05-10T02:16:01.683Z,997.68
2019-05-10T02:17:01.663Z,997.72
2019-05-10T02:18:01.651Z,997.75
2019-05-10T02:19:01.641Z,997.75
2019-05-10T02:20:01.632Z,997.70
2019-05-10T02:21:01.635Z,997.74
2019-05-10T02:22:01.610Z,997.74
2019-05-10T02:23:01.604Z,997.74
2019-05-10T02:24:01.595Z,997.75
2019-05-10T02:25:01.583Z,997.74
2019-05-10T02:26:09.455Z,997.76
2019-05-10T02:27:02.557Z,997.76
2019-05-10T02:28:01.541Z,997.80
2019-05-10T02:29:01.533Z,997.75
2019-05-10T02:30:01.533Z,997.77
2019-05-10T02:31:01.529Z,997.81
2019-05-10T02:32:01.502Z,997.78
2019-05-10T02:33:01.497Z,997.89
2019-05-10T02:34:01.480Z,997.87
2019-05-10T02:35:01.472Z,997.83
2019-05-10T02:36:01.474Z,997.85
2019-05-10T02:37:01.453Z,997.87
2019-05-10T02:38:01.444Z,997.94
2019-05-10T02:39:01.425Z,997.90
2019-05-10T02:40:01.432Z,997.90
2019-05-10T02:41:01.440Z,997.98
2019-05-10T02:42:01.395Z,997.93
2019-05-10T02:43:01.385Z,997.91
2019-05-10T02:44:01.391Z,997.90
2019-05-10T02:45:01.360Z,997.96
2019-05-10T02:46:01.375Z,997.96
2019-05-10T02:47:01.353Z,997.98
2019-05-10T02:48:01.334Z,997.96
2019-05-10T02:49:01.337Z,997.97
2019-05-10T02:50:01.313Z,997.99
2019-05-10T02:51:01.306Z,998.00
2019-05-10T02:52:01.307Z,997.97
2019-05-10T02:53:01.309Z,997.99
2019-05-10T02:54:01.263Z,997.94
2019-05-10T02:55:01.275Z,997.94
2019-05-10T02:56:01.263Z,997.94
2019-05-10T02:57:01.230Z,997.98
2019-05-10T02:58:01.259Z,997.97
2019-05-10T02:59:01.213Z,997.96
2019-05-10T03:00:01.221Z,997.99
2019-05-10T03:01:01.239Z,998.00
2019-05-10T03:02:01.175Z,998.02
2019-05-10T03:03:01.173Z,998.05
2019-05-10T03:04:01.158Z,998.06
2019-05-10T03:05:01.143Z,998.07
2019-05-10T03:06:01.135Z,998.08
2019-05-10T03:07:01.136Z,998.05
2019-05-10T03:08:01.121Z,998.00
2019-05-10T03:09:01.102Z,998.08
2019-05-10T03:10:01.098Z,998.12
2019-05-10T03:11:01.078Z,998.09
2019-05-10T03:12:01.080Z,998.05
2019-05-10T03:13:01.060Z,998.10
2019-05-10T03:14:01.055Z,998.12
2019-05-10T03:15:01.094Z,998.06
2019-05-10T03:16:01.025Z,998.12
2019-05-10T03:17:01.030Z,998.13
2019-05-10T03:18:01.002Z,998.11
2019-05-10T03:19:00.987Z,998.10
2019-05-10T03:20:00.980Z,998.11
2019-05-10T03:21:00.973Z,998.09
2019-05-10T03:22:00.965Z,998.08
2019-05-10T03:23:00.944Z,998.12
2019-05-10T03:24:00.934Z,998.11
2019-05-10T03:25:00.921Z,998.08
2019-05-10T03:26:00.914Z,998.16
2019-05-10T03:27:00.913Z,998.14
2019-05-10T03:28:00.893Z,998.24
2019-05-10T03:29:00.893Z,998.22
2019-05-10T03:30:00.870Z,998.19
2019-05-10T03:31:00.862Z,998.25
2019-05-10T03:32:00.878Z,998.23
2019-05-10T03:33:00.841Z,998.31
2019-05-10T03:34:00.875Z,998.24
2019-05-10T03:35:00.839Z,998.26
2019-05-10T03:36:00.804Z,998.26
2019-05-10T03:37:00.830Z,998.26
2019-05-10T03:38:00.796Z,998.29
2019-05-10T03:39:00.772Z,998.26
2019-05-10T03:40:00.766Z,998.27
2019-05-10T03:41:00.752Z,998.29
2019-05-10T03:42:00.755Z,998.26
2019-05-10T03:43:00.736Z,998.31
2019-05-10T03:44:00.743Z,998.30
2019-05-10T03:45:00.822Z,998.36
2019-05-10T03:46:00.703Z,998.38
2019-05-10T03:47:00.714Z,998.32
2019-05-10T03:48:00.687Z,998.38
2019-05-10T03:49:00.671Z,998.47
2019-05-10T03:50:00.655Z,998.47
2019-05-10T03:51:00.644Z,998.48
2019-05-10T03:52:00.655Z,998.47
2019-05-10T03:53:00.622Z,998.50
2019-05-10T03:54:00.613Z,998.52
2019-05-10T03:55:00.600Z,998.55
2019-05-10T03:56:00.614Z,998.47
2019-05-10T03:57:13.387Z,998.50
2019-05-10T03:58:01.573Z,998.55
2019-05-10T03:59:00.563Z,998.56
2019-05-10T04:00:00.574Z,998.57
2019-05-10T04:01:00.555Z,998.61
2019-05-10T04:02:00.548Z,998.60
2019-05-10T04:03:00.526Z,998.68
2019-05-10T04:04:00.512Z,998.62
2019-05-10T04:05:00.498Z,998.66
2019-05-10T04:06:00.496Z,998.64
2019-05-10T04:07:00.492Z,998.65
2019-05-10T04:08:00.481Z,998.71
2019-05-10T04:09:00.459Z,998.72
2019-05-10T04:10:00.446Z,998.73
2019-05-10T04:11:00.436Z,998.74
2019-05-10T04:12:00.428Z,998.70
2019-05-10T04:13:00.425Z,998.73
2019-05-10T04:14:00.399Z,998.73
2019-05-10T04:15:00.393Z,998.73
2019-05-10T04:16:00.377Z,998.75
2019-05-10T04:17:00.366Z,998.74
2019-05-10T04:18:00.364Z,998.79
2019-05-10T04:19:00.347Z,998.80
2019-05-10T04:20:00.333Z,998.81
2019-05-10T04:21:00.329Z,998.81
2019-05-10T04:22:00.333Z,998.78
2019-05-10T04:23:00.312Z,998.83
2019-05-10T04:24:00.292Z,998.87
2019-05-10T04:25:00.280Z,998.83
2019-05-10T04:26:00.277Z,998.82
2019-05-10T04:27:00.280Z,998.79
2019-05-10T04:28:00.264Z,998.88
2019-05-10T04:29:00.242Z,998.90
2019-05-10T04:30:00.227Z,998.88
2019-05-10T04:31:00.227Z,998.90
2019-05-10T04:32:00.210Z,998.92
2019-05-10T04:33:00.247Z,998.94
2019-05-10T04:34:00.196Z,998.96
2019-05-10T04:35:00.183Z,998.93
2019-05-10T04:36:00.177Z,998.94
2019-05-10T04:37:00.177Z,999.00
2019-05-10T04:38:00.153Z,999.02
2019-05-10T04:39:00.135Z,999.00
2019-05-10T04:40:00.138Z,998.99
2019-05-10T04:41:00.137Z,998.99
2019-05-10T04:42:00.104Z,998.99
2019-05-10T04:43:00.101Z,998.99
2019-05-10T04:44:00.085Z,998.98
2019-05-10T04:45:00.096Z,999.01
2019-05-10T04:46:00.056Z,999.02
2019-05-10T04:47:00.053Z,999.03
2019-05-10T04:48:00.056Z,999.06
2019-05-10T04:49:00.023Z,999.01
2019-05-10T04:50:00.019Z,999.06
2019-05-10T04:51:00.008Z,999.15
2019-05-10T04:51:59.992Z,999.08
2019-05-10T04:52:59.998Z,999.09
2019-05-10T04:53:59.986Z,999.11
2019-05-10T04:54:59.960Z,999.11
2019-05-10T04:55:59.948Z,999.12
2019-05-10T04:57:00.276Z,999.18
2019-05-10T04:57:59.944Z,999.15
2019-05-10T04:58:59.982Z,999.23
2019-05-10T04:59:59.969Z,999.18
2019-05-10T05:00:59.958Z,999.20
2019-05-10T05:01:59.891Z,999.18
2019-05-10T05:02:59.950Z,999.19
2019-05-10T05:03:59.868Z,999.20
2019-05-10T05:04:59.853Z,999.21
2019-05-10T05:05:59.845Z,999.18
2019-05-10T05:06:59.842Z,999.21
2019-05-10T05:07:59.834Z,999.24
2019-05-10T05:08:59.812Z,999.29
2019-05-10T05:09:59.804Z,999.26
2019-05-10T05:10:59.788Z,999.26
2019-05-10T05:11:59.800Z,999.26
2019-05-10T05:12:59.781Z,999.29
2019-05-10T05:14:00.012Z,999.29
2019-05-10T05:14:59.755Z,999.29
2019-05-10T05:15:59.749Z,999.30
2019-05-10T05:16:59.732Z,999.31
2019-05-10T05:17:59.726Z,999.31
2019-05-10T05:18:59.722Z,999.34
2019-05-10T05:19:59.702Z,999.38
2019-05-10T05:20:59.694Z,999.39
2019-05-10T05:21:59.692Z,999.35
2019-05-10T05:22:59.813Z,999.39
2019-05-10T05:23:59.691Z,999.47
2019-05-10T05:25:01.064Z,999.45
2019-05-10T05:25:59.636Z,999.44
2019-05-10T05:26:59.636Z,999.44
2019-05-10T05:28:07.804Z,999.42
2019-05-10T05:29:00.629Z,999.48
2019-05-10T05:29:59.587Z,999.49
2019-05-10T05:30:59.571Z,999.51
2019-05-10T05:32:01.263Z,999.52
2019-05-10T05:32:59.559Z,999.55
2019-05-10T05:34:04.800Z,999.62
2019-05-10T05:35:00.527Z,999.64
2019-05-10T05:36:02.134Z,999.61
2019-05-10T05:36:59.525Z,999.62
2019-05-10T05:37:59.513Z,999.63
2019-05-10T05:38:59.502Z,999.58
2019-05-10T05:39:59.472Z,999.65
2019-05-10T05:40:59.465Z,999.66
2019-05-10T05:41:59.453Z,999.62
2019-05-10T05:43:02.756Z,999.65
2019-05-10T05:44:00.439Z,999.65
2019-05-10T05:44:59.443Z,999.66
2019-05-10T05:45:59.411Z,999.66
2019-05-10T05:46:59.409Z,999.68
2019-05-10T05:47:59.389Z,999.58
2019-05-10T05:48:59.391Z,999.60
2019-05-10T05:49:59.368Z,999.63
2019-05-10T05:50:59.362Z,999.68
2019-05-10T05:51:59.362Z,999.69
2019-05-10T05:52:59.352Z,999.71
2019-05-10T05:53:59.365Z,999.69
2019-05-10T05:54:59.381Z,999.63
2019-05-10T05:56:03.732Z,999.65
2019-05-10T05:57:00.314Z,999.66
2019-05-10T05:58:04.534Z,999.70
2019-05-10T05:59:00.372Z,999.70
2019-05-10T06:00:03.881Z,999.73
2019-05-10T06:01:00.259Z,999.70
2019-05-10T06:02:00.594Z,999.70
2019-05-10T06:03:00.276Z,999.72
2019-05-10T06:04:00.198Z,999.76
2019-05-10T06:05:00.226Z,999.74
2019-05-10T06:05:59.199Z,999.74
2019-05-10T06:07:00.453Z,999.70
2019-05-10T06:07:59.214Z,999.68
2019-05-10T06:09:00.089Z,999.75
2019-05-10T06:09:59.157Z,999.76
2019-05-10T06:11:00.096Z,999.83
2019-05-10T06:11:59.130Z,999.81
2019-05-10T06:12:59.118Z,999.78
2019-05-10T06:14:03.616Z,999.80
2019-05-10T06:15:00.098Z,999.83
2019-05-10T06:16:00.342Z,999.83
2019-05-10T06:16:59.093Z,999.93
2019-05-10T06:18:03.601Z,999.87
2019-05-10T06:19:00.091Z,999.86
2019-05-10T06:20:00.816Z,999.88
2019-05-10T06:21:00.041Z,999.91
2019-05-10T06:22:04.477Z,999.90
2019-05-10T06:23:06.617Z,999.99
2019-05-10T06:24:00.050Z,999.97
2019-05-10T06:24:58.994Z,999.98
2019-05-10T06:25:58.983Z,999.98
2019-05-10T06:27:03.493Z,1000.10
2019-05-10T06:27:59.983Z,1000.10
2019-05-10T06:29:03.723Z,1000.03
2019-05-10T06:29:59.942Z,1000.08
2019-05-10T06:30:58.924Z,1000.08
2019-05-10T06:31:59.128Z,1000.09
2019-05-10T06:33:00.820Z,1000.01
2019-05-10T06:33:58.920Z,1000.02
2019-05-10T06:34:58.882Z,1000.02
2019-05-10T06:35:58.871Z,1000.05
2019-05-10T06:36:58.858Z,1000.04
2019-05-10T06:37:58.859Z,1000.04
2019-05-10T06:38:58.841Z,1000.07
2019-05-10T06:39:58.846Z,1000.02
2019-05-10T06:40:58.816Z,1000.06
2019-05-10T06:41:58.808Z,1000.06
2019-05-10T06:42:58.793Z,1000.01
2019-05-10T06:43:58.789Z,1000.05
2019-05-10T06:45:04.977Z,1000.05
2019-05-10T06:45:59.834Z,1000.03
2019-05-10T06:47:02.055Z,1000.02
2019-05-10T06:47:59.742Z,1000.06
2019-05-10T06:49:07.263Z,999.99
2019-05-10T06:49:59.733Z,1000.14
2019-05-10T06:51:03.009Z,1000.06
2019-05-10T06:51:59.701Z,1000.12
2019-05-10T06:53:00.718Z,1000.06
2019-05-10T06:53:59.674Z,1000.07
2019-05-10T06:54:58.923Z,1000.12
2019-05-10T06:55:58.682Z,1000.19
2019-05-10T06:56:58.643Z,1000.11
2019-05-10T06:58:00.692Z,1000.11
2019-05-10T06:59:12.338Z,1000.11
2019-05-10T07:00:05.966Z,1000.14
2019-05-10T07:00:59.605Z,1000.13
2019-05-10T07:01:58.590Z,1000.14
2019-05-10T07:02:58.589Z,1000.16
2019-05-10T07:03:58.570Z,1000.15
2019-05-10T07:04:58.597Z,1000.20
2019-05-10T07:05:58.550Z,1000.20
2019-05-10T07:06:58.568Z,1000.21
2019-05-10T07:08:13.833Z,1000.21
2019-05-10T07:08:59.596Z,1000.13
2019-05-10T07:10:08.334Z,1000.20
2019-05-10T07:10:59.490Z,1000.16
2019-05-10T07:11:58.484Z,1000.19
2019-05-10T07:13:03.596Z,1000.16
2019-05-10T07:13:59.470Z,1000.20
2019-05-10T07:15:03.478Z,1000.15
2019-05-10T07:15:59.451Z,1000.17
2019-05-10T07:17:02.820Z,1000.16
2019-05-10T07:17:59.424Z,1000.24
2019-05-10T07:19:00.487Z,1000.14
2019-05-10T07:19:58.417Z,1000.15
2019-05-10T07:21:00.950Z,1000.17
2019-05-10T07:21:59.372Z,1000.24
2019-05-10T07:23:00.033Z,1000.21
2019-05-10T07:23:59.365Z,1000.24
2019-05-10T07:25:04.535Z,1000.21
2019-05-10T07:25:59.336Z,1000.22
2019-05-10T07:27:02.102Z,1000.24
2019-05-10T07:27:58.310Z,1000.22
2019-05-10T07:28:59.410Z,1000.25
2019-05-10T07:29:58.297Z,1000.32
2019-05-10T07:30:58.287Z,1000.32
2019-05-10T07:31:58.266Z,1000.30
2019-05-10T07:32:59.707Z,1000.34
2019-05-10T07:33:58.248Z,1000.40
2019-05-10T07:35:00.776Z,1000.40
2019-05-10T07:35:58.224Z,1000.45
2019-05-10T07:37:01.570Z,1000.43
2019-05-10T07:37:58.233Z,1000.42
2019-05-10T07:39:02.718Z,1000.48
2019-05-10T07:39:59.188Z,1000.49
2019-05-10T07:40:58.173Z,1000.53
2019-05-10T07:42:00.264Z,1000.55
2019-05-10T07:42:59.147Z,1000.53
2019-05-10T07:44:00.614Z,1000.59
2019-05-10T07:44:59.169Z,1000.60
2019-05-10T07:46:06.171Z,1000.57
2019-05-10T07:46:59.107Z,1000.57
2019-05-10T07:48:02.364Z,1000.61
2019-05-10T07:48:59.080Z,1000.60
2019-05-10T07:49:58.110Z,1000.68
2019-05-10T07:50:58.071Z,1000.65
2019-05-10T07:52:02.081Z,1000.68
2019-05-10T07:52:58.038Z,1000.60
2019-05-10T07:54:04.806Z,1000.63
2019-05-10T07:54:59.018Z,1000.71
2019-05-10T07:55:59.838Z,1000.64
2019-05-10T07:56:58.995Z,1000.73
2019-05-10T07:57:59.202Z,1000.69
2019-05-10T07:59:00.749Z,1000.72
2019-05-10T08:00:03.493Z,1000.68
2019-05-10T08:00:59.000Z,1000.66
2019-05-10T08:01:58.010Z,1000.75
2019-05-10T08:03:12.414Z,1000.76
2019-05-10T08:03:59.229Z,1000.71
2019-05-10T08:04:58.481Z,1000.73
2019-05-10T08:06:01.787Z,1000.77
2019-05-10T08:06:59.676Z,1000.80
2019-05-10T08:07:58.868Z,1000.83
2019-05-10T08:09:01.995Z,1000.88
2019-05-10T08:09:59.424Z,1000.94
2019-05-10T08:10:59.348Z,1000.90
2019-05-10T08:12:03.187Z,1000.96
2019-05-10T08:13:01.363Z,1000.90
2019-05-10T08:14:06.115Z,1000.96
2019-05-10T08:14:59.062Z,1000.96
2019-05-10T08:15:59.423Z,1000.96
2019-05-10T08:17:01.927Z,1000.98
2019-05-10T08:17:58.768Z,1001.01
2019-05-10T08:19:00.918Z,1000.99
2019-05-10T08:19:57.748Z,1001.04
2019-05-10T08:21:02.249Z,1000.97
2019-05-10T08:22:01.806Z,1001.04
2019-05-10T08:22:58.712Z,1001.09
2019-05-10T08:23:59.040Z,1001.09
2019-05-10T08:24:58.695Z,1001.06
2019-05-10T08:25:57.734Z,1001.08
2019-05-10T08:27:09.765Z,1001.14
2019-05-10T08:27:58.665Z,1001.12
2019-05-10T08:28:57.659Z,1001.04
2019-05-10T08:30:17.808Z,1001.03
2019-05-10T08:30:59.115Z,1001.12
2019-05-10T08:31:57.618Z,1001.12
2019-05-10T08:33:00.197Z,1001.16
2019-05-10T08:33:59.248Z,1001.18
2019-05-10T08:34:57.599Z,1001.15
2019-05-10T08:36:00.451Z,1001.14
2019-05-10T08:36:58.563Z,1001.13
2019-05-10T08:37:57.557Z,1001.16
2019-05-10T08:39:07.056Z,1001.11
2019-05-10T08:39:58.535Z,1001.15
2019-05-10T08:40:57.532Z,1001.22
2019-05-10T08:42:08.834Z,1001.16
2019-05-10T08:43:04.882Z,1001.15
2019-05-10T08:43:58.490Z,1001.15
2019-05-10T08:45:03.777Z,1001.21
2019-05-10T08:45:58.491Z,1001.15
2019-05-10T08:46:57.464Z,1001.17
2019-05-10T08:48:00.655Z,1001.29
2019-05-10T08:48:58.459Z,1001.20
2019-05-10T08:50:10.537Z,1001.20
2019-05-10T08:51:04.087Z,1001.14
2019-05-10T08:51:58.423Z,1001.20
2019-05-10T08:53:04.357Z,1001.15
2019-05-10T08:53:58.527Z,1001.19
2019-05-10T08:54:57.372Z,1001.18
2019-05-10T08:55:58.994Z,1001.24
2019-05-10T08:57:01.321Z,1001.27
2019-05-10T08:57:58.336Z,1001.25
2019-05-10T08:58:57.327Z,1001.25
2019-05-10T09:00:06.607Z,1001.26
2019-05-10T09:01:15.498Z,1001.28
2019-05-10T09:01:58.299Z,1001.34
2019-05-10T09:03:02.970Z,1001.32
2019-05-10T09:04:00.778Z,1001.27
2019-05-10T09:04:58.258Z,1001.36
2019-05-10T09:05:57.247Z,1001.35
2019-05-10T09:06:59.888Z,1001.36
2019-05-10T09:07:57.233Z,1001.36
2019-05-10T09:09:01.685Z,1001.43
2019-05-10T09:09:58.226Z,1001.28
2019-05-10T09:10:57.193Z,1001.35
2019-05-10T09:11:57.673Z,1001.36
2019-05-10T09:12:58.422Z,1001.33
2019-05-10T09:13:57.837Z,1001.41
2019-05-10T09:15:05.494Z,1001.40
2019-05-10T09:15:58.165Z,1001.42
2019-05-10T09:17:03.489Z,1001.39
2019-05-10T09:18:02.849Z,1001.40
2019-05-10T09:18:58.104Z,1001.40
2019-05-10T09:19:57.099Z,1001.39
2019-05-10T09:21:02.609Z,1001.44
2019-05-10T09:21:58.086Z,1001.46
2019-05-10T09:22:57.109Z,1001.44
2019-05-10T09:24:01.347Z,1001.48
2019-05-10T09:24:58.041Z,1001.57
2019-05-10T09:26:03.744Z,1001.46
2019-05-10T09:26:58.053Z,1001.51
2019-05-10T09:28:02.357Z,1001.55
2019-05-10T09:28:58.003Z,1001.42
2019-05-10T09:29:56.988Z,1001.40
2019-05-10T09:31:01.222Z,1001.46
2019-05-10T09:32:01.033Z,1001.38
2019-05-10T09:33:00.988Z,1001.44
2019-05-10T09:33:57.946Z,1001.48
2019-05-10T09:34:59.742Z,1001.48
2019-05-10T09:35:59.313Z,1001.51
2019-05-10T09:36:56.927Z,1001.51
2019-05-10T09:37:58.525Z,1001.54
2019-05-10T09:38:56.900Z,1001.49
2019-05-10T09:40:05.415Z,1001.51
2019-05-10T09:40:57.873Z,1001.53
2019-05-10T09:41:56.877Z,1001.55
2019-05-10T09:42:59.410Z,1001.52
2019-05-10T09:43:57.858Z,1001.51
2019-05-10T09:44:56.863Z,1001.54
2019-05-10T09:45:56.860Z,1001.57
2019-05-10T09:46:56.819Z,1001.54
2019-05-10T09:47:56.795Z,1001.53
2019-05-10T09:49:06.141Z,1001.59
2019-05-10T09:49:58.956Z,1001.56
2019-05-10T09:51:00.642Z,1001.51
2019-05-10T09:51:57.778Z,1001.55
2019-05-10T09:52:56.748Z,1001.60
2019-05-10T09:53:57.914Z,1001.59
2019-05-10T09:54:57.113Z,1001.67
2019-05-10T09:56:02.558Z,1001.76
2019-05-10T09:56:57.775Z,1001.72
2019-05-10T09:57:58.313Z,1001.77
2019-05-10T09:58:58.185Z,1001.78
2019-05-10T09:59:57.217Z,1001.71
2019-05-10T10:01:12.826Z,1001.73
2019-05-10T10:01:57.646Z,1001.76
2019-05-10T10:03:01.176Z,1001.84
2019-05-10T10:03:58.433Z,1001.80
2019-05-10T10:04:58.841Z,1001.85
2019-05-10T10:06:05.152Z,1001.84
2019-05-10T10:06:58.128Z,1001.89
2019-05-10T10:07:57.840Z,1001.88
2019-05-10T10:08:57.730Z,1001.96
2019-05-10T10:09:57.120Z,1001.98
2019-05-10T10:11:01.095Z,1001.94
2019-05-10T10:12:01.052Z,1002.00
2019-05-10T10:13:07.321Z,1002.01
2019-05-10T10:14:00.015Z,1002.03
2019-05-10T10:14:56.516Z,1002.04
2019-05-10T10:15:58.140Z,1002.10
2019-05-10T10:17:00.554Z,1001.98
2019-05-10T10:17:58.298Z,1002.05
2019-05-10T10:18:56.476Z,1002.01
2019-05-10T10:19:57.857Z,1002.11
2019-05-10T10:20:56.448Z,1002.08
2019-05-10T10:21:57.608Z,1002.10
2019-05-10T10:22:56.455Z,1002.05
2019-05-10T10:24:00.037Z,1002.00
2019-05-10T10:25:00.465Z,1002.05
2019-05-10T10:25:58.006Z,1002.07
2019-05-10T10:26:58.132Z,1002.04
2019-05-10T10:27:57.412Z,1002.07
2019-05-10T10:28:59.515Z,1002.04
2019-05-10T10:29:57.354Z,1002.05
2019-05-10T10:31:03.034Z,1002.04
2019-05-10T10:31:58.948Z,1002.06
2019-05-10T10:32:58.119Z,1002.01
2019-05-10T10:33:59.499Z,1002.07
2019-05-10T10:34:57.760Z,1002.01
2019-05-10T10:36:04.812Z,1001.99
2019-05-10T10:36:58.041Z,1002.01
2019-05-10T10:37:57.541Z,1002.06
2019-05-10T10:38:57.252Z,1002.07
2019-05-10T10:40:00.737Z,1002.13
2019-05-10T10:40:57.704Z,1001.98
2019-05-10T10:41:57.109Z,1001.99
2019-05-10T10:42:57.732Z,1002.04
2019-05-10T10:43:58.376Z,1002.04
2019-05-10T10:44:56.183Z,1002.01
2019-05-10T10:45:57.459Z,1002.01
2019-05-10T10:46:58.226Z,1002.14
2019-05-10T10:47:57.313Z,1002.08
2019-05-10T10:48:56.144Z,1002.11
2019-05-10T10:49:57.884Z,1002.15
2019-05-10T10:50:58.519Z,1002.08
2019-05-10T10:51:57.360Z,1002.12
2019-05-10T10:52:57.470Z,1002.04
2019-05-10T10:53:58.107Z,1002.12
2019-05-10T10:54:57.648Z,1002.13
2019-05-10T10:56:02.467Z,1002.18
2019-05-10T10:56:59.437Z,1002.20
2019-05-10T10:57:57.661Z,1002.22
2019-05-10T10:58:58.071Z,1002.20
2019-05-10T10:59:57.453Z,1002.23
2019-05-10T11:00:56.045Z,1002.27
2019-05-10T11:02:25.376Z,1002.25
2019-05-10T11:02:56.996Z,1002.30
2019-05-10T11:03:55.990Z,1002.33
2019-05-10T11:04:55.974Z,1002.33
2019-05-10T11:05:55.971Z,1002.30
2019-05-10T11:07:09.197Z,1002.25
2019-05-10T11:07:56.940Z,1002.23
2019-05-10T11:08:55.940Z,1002.23
2019-05-10T11:10:12.266Z,1002.29
2019-05-10T11:10:56.907Z,1002.25
2019-05-10T11:11:55.903Z,1002.26
2019-05-10T11:12:56.264Z,1002.29
2019-05-10T11:14:00.433Z,1002.31
2019-05-10T11:14:56.861Z,1002.37
2019-05-10T11:15:58.959Z,1002.28
2019-05-10T11:16:57.325Z,1002.32
2019-05-10T11:17:55.845Z,1002.31
2019-05-10T11:18:55.852Z,1002.40
2019-05-10T11:19:55.809Z,1002.40
2019-05-10T11:20:55.795Z,1002.37
2019-05-10T11:21:55.788Z,1002.37
2019-05-10T11:22:55.776Z,1002.40
2019-05-10T11:23:55.781Z,1002.42
2019-05-10T11:25:00.698Z,1002.40
2019-05-10T11:25:56.832Z,1002.33
2019-05-10T11:26:55.732Z,1002.39
2019-05-10T11:27:58.576Z,1002.36
2019-05-10T11:28:56.728Z,1002.41
2019-05-10T11:29:55.728Z,1002.35
2019-05-10T11:30:55.687Z,1002.41
2019-05-10T11:32:12.153Z,1002.40
2019-05-10T11:32:56.667Z,1002.37
2019-05-10T11:33:58.429Z,1002.36
2019-05-10T11:34:56.683Z,1002.36
2019-05-10T11:35:57.547Z,1002.40
2019-05-10T11:36:56.630Z,1002.38
2019-05-10T11:37:55.617Z,1002.34
2019-05-10T11:38:58.587Z,1002.36
2019-05-10T11:39:55.615Z,1002.38
2019-05-10T11:40:55.592Z,1002.35
2019-05-10T11:42:02.035Z,1002.37
2019-05-10T11:42:56.562Z,1002.34
2019-05-10T11:43:57.994Z,1002.36
2019-05-10T11:44:56.553Z,1002.40
2019-05-10T11:45:55.526Z,1002.39
2019-05-10T11:46:55.520Z,1002.40
2019-05-10T11:47:59.080Z,1002.37
2019-05-10T11:48:56.496Z,1002.43
2019-05-10T11:49:55.492Z,1002.39
2019-05-10T11:50:55.471Z,1002.48
2019-05-10T11:51:58.681Z,1002.48
2019-05-10T11:52:55.450Z,1002.46
2019-05-10T11:53:59.658Z,1002.49
2019-05-10T11:54:55.437Z,1002.43
2019-05-10T11:55:55.416Z,1002.50
2019-05-10T11:56:58.468Z,1002.48
2019-05-10T11:58:03.295Z,1002.34
2019-05-10T11:58:56.380Z,1002.34
2019-05-10T11:59:55.379Z,1002.36
2019-05-10T12:00:59.309Z,1002.46
2019-05-10T12:01:59.400Z,1002.50
2019-05-10T12:03:07.413Z,1002.52
2019-05-10T12:03:56.327Z,1002.36
2019-05-10T12:04:55.328Z,1002.41
2019-05-10T12:06:04.296Z,1002.50
2019-05-10T12:06:56.294Z,1002.44
2019-05-10T12:07:55.287Z,1002.44
2019-05-10T12:09:01.214Z,1002.48
2019-05-10T12:10:07.532Z,1002.47
2019-05-10T12:11:07.496Z,1002.52
2019-05-10T12:11:57.046Z,1002.51
2019-05-10T12:13:10.929Z,1002.45
2019-05-10T12:13:57.560Z,1002.47
2019-05-10T12:14:55.218Z,1002.42
2019-05-10T12:15:55.202Z,1002.45
2019-05-10T12:16:55.190Z,1002.40